TimeEST,TemperatureF,Dew PointF,Humidity,Sea Level PressureIn,VisibilityMPH,Wind Direction,Wind SpeedMPH,Gust SpeedMPH,PrecipitationIn,Events,Conditions,WindDirDegrees,DateUTC
12:53 AM,41.0,32.0,70,30.27,9.0,Calm,Calm,-,N/A,,Clear,0,2013-03-09 05:53:00
1:53 AM,39.0,30.9,73,30.27,8.0,Calm,Calm,-,N/A,,Clear,0,2013-03-09 06:53:00
2:53 AM,37.0,32.0,82,30.25,7.0,Calm,Calm,-,N/A,,Clear,0,2013-03-09 07:53:00
3:53 AM,37.0,30.9,79,30.24,7.0,Calm,Calm,-,N/A,,Clear,0,2013-03-09 08:53:00
4:53 AM,36.0,30.9,82,30.25,8.0,NNE,4.6,-,N/A,,Clear,30,2013-03-09 09:53:00
5:53 AM,39.0,28.9,67,30.25,10.0,NNE,8.1,-,N/A,,Clear,30,2013-03-09 10:53:00
6:53 AM,37.9,28.9,70,30.28,10.0,NE,6.9,-,N/A,,Scattered Clouds,40,2013-03-09 11:53:00
7:53 AM,44.1,33.1,65,30.30,10.0,NNE,4.6,-,N/A,,Mostly Cloudy,30,2013-03-09 12:53:00
8:53 AM,48.9,32.0,52,30.32,10.0,NE,6.9,-,N/A,,Partly Cloudy,50,2013-03-09 13:53:00
9:53 AM,53.1,30.9,43,30.33,10.0,Variable,3.5,-,N/A,,Partly Cloudy,0,2013-03-09 14:53:00
10:53 AM,55.9,30.0,37,30.34,10.0,ENE,5.8,-,N/A,,Scattered Clouds,60,2013-03-09 15:53:00
11:53 AM,57.9,30.0,35,30.34,10.0,East,3.5,-,N/A,,Partly Cloudy,100,2013-03-09 16:53:00
12:53 PM,62.1,30.0,30,30.31,10.0,NE,5.8,-,N/A,,Partly Cloudy,40,2013-03-09 17:53:00
1:53 PM,64.0,30.0,28,30.28,10.0,Variable,3.5,-,N/A,,Partly Cloudy,0,2013-03-09 18:53:00
2:53 PM,64.9,32.0,29,30.25,10.0,East,3.5,-,N/A,,Partly Cloudy,80,2013-03-09 19:53:00
3:53 PM,64.9,33.1,31,30.25,10.0,ESE,9.2,-,N/A,,Partly Cloudy,110,2013-03-09 20:53:00
4:53 PM,62.1,35.1,37,30.25,10.0,East,9.2,-,N/A,,Partly Cloudy,100,2013-03-09 21:53:00
5:53 PM,59.0,35.1,41,30.25,10.0,SE,10.4,-,N/A,,Partly Cloudy,140,2013-03-09 22:53:00
6:53 PM,54.0,36.0,51,30.27,10.0,South,5.8,-,N/A,,Partly Cloudy,170,2013-03-09 23:53:00
7:53 PM,50.0,39.9,68,30.27,10.0,South,3.5,-,N/A,,Clear,180,2013-03-10 00:53:00
8:53 PM,48.9,39.9,71,30.28,10.0,SSE,3.5,-,N/A,,Clear,160,2013-03-10 01:53:00
9:53 PM,46.9,39.9,77,30.28,10.0,Calm,Calm,-,N/A,,Clear,0,2013-03-10 02:53:00
10:53 PM,48.0,41.0,77,30.28,10.0,Calm,Calm,-,N/A,,Clear,0,2013-03-10 03:53:00
11:53 PM,44.1,41.0,89,30.27,10.0,Calm,Calm,-,N/A,,Clear,0,2013-03-10 04:53:00